sensor_id;sensor_type;location;lat;lon;timestamp;P1;durP1;ratioP1;P2;durP2;ratioP2
5878;SDS011;2965;42.640;23.370;2023-03-14T05:03:01;23.37;;;12.10;;
5878;SDS011;2965;42.640;23.370;2023-03-14T05:05:27;18.67;;;12.20;;
5878;SDS011;2965;42.640;23.370;2023-03-14T05:07:52;21.03;;;11.40;;
5878;SDS011;2965;42.640;23.370;2023-03-14T05:10:18;15.13;;;10.77;;
5878;SDS011;2965;42.640;23.370;2023-03-14T05:12:43;25.57;;;11.97;;
5878;SDS011;2965;42.640;23.370;2023-03-14T05:15:09;21.40;;;13.63;;
5878;SDS011;2965;42.640;23.370;2023-03-14T05:17:34;16.63;;;11.43;;
5878;SDS011;2965;42.640;23.370;2023-03-14T05:20:00;14.30;;;10.50;;
5878;SDS011;2965;42.640;23.370;2023-03-14T05:22:26;21.80;;;12.60;;
5878;SDS011;2965;42.640;23.370;2023-03-14T05:24:52;20.10;;;12.33;;
5878;SDS011;2965;42.640;23.370;2023-03-14T05:27:21;22.23;;;11.03;;
5878;SDS011;2965;42.640;23.370;2023-03-14T05:29:47;19.33;;;12.53;;
5878;SDS011;2965;42.640;23.370;2023-03-14T05:32:12;20.27;;;13.20;;
5878;SDS011;2965;42.640;23.370;2023-03-14T05:34:38;20.93;;;12.70;;
5878;SDS011;2965;42.640;23.370;2023-03-14T05:37:03;20.57;;;12.60;;
5878;SDS011;2965;42.640;23.370;2023-03-14T05:39:28;23.13;;;14.13;;
5878;SDS011;2965;42.640;23.370;2023-03-14T05:41:54;23.80;;;14.00;;
5878;SDS011;2965;42.640;23.370;2023-03-14T05:44:20;26.00;;;13.03;;
5878;SDS011;2965;42.640;23.370;2023-03-14T05:46:46;21.83;;;13.30;;
5878;SDS011;2965;42.640;23.370;2023-03-14T05:49:12;16.43;;;10.93;;
5878;SDS011;2965;42.640;23.370;2023-03-14T05:51:37;26.67;;;16.00;;
5878;SDS011;2965;42.640;23.370;2023-03-14T05:54:02;29.20;;;14.10;;
5878;SDS011;2965;42.640;23.370;2023-03-14T05:56:28;23.97;;;14.50;;
5878;SDS011;2965;42.640;23.370;2023-03-14T05:58:53;26.40;;;14.97;;
5878;SDS011;2965;42.640;23.370;2023-03-14T06:01:18;22.77;;;12.93;;
5878;SDS011;2965;42.640;23.370;2023-03-14T06:03:44;19.30;;;11.00;;
5878;SDS011;2965;42.640;23.370;2023-03-14T06:06:09;10.73;;;7.63;;
5878;SDS011;2965;42.640;23.370;2023-03-14T06:08:34;13.13;;;8.97;;
5878;SDS011;2965;42.640;23.370;2023-03-14T06:11:01;23.77;;;9.83;;
5878;SDS011;2965;42.640;23.370;2023-03-14T06:13:27;25.83;;;12.00;;
5878;SDS011;2965;42.640;23.370;2023-03-14T06:15:53;20.17;;;10.73;;
5878;SDS011;2965;42.640;23.370;2023-03-14T06:18:18;19.63;;;9.27;;
5878;SDS011;2965;42.640;23.370;2023-03-14T06:20:44;17.13;;;8.70;;
5878;SDS011;2965;42.640;23.370;2023-03-14T06:23:09;10.87;;;8.10;;
5878;SDS011;2965;42.640;23.370;2023-03-14T06:25:35;11.70;;;8.20;;
5878;SDS011;2965;42.640;23.370;2023-03-14T06:28:01;13.03;;;7.80;;
5878;SDS011;2965;42.640;23.370;2023-03-14T06:30:27;9.70;;;7.27;;
5878;SDS011;2965;42.640;23.370;2023-03-14T06:32:52;7.23;;;6.50;;
5878;SDS011;2965;42.640;23.370;2023-03-14T06:35:18;10.90;;;7.27;;
5878;SDS011;2965;42.640;23.370;2023-03-14T06:37:44;20.37;;;8.10;;
5878;SDS011;2965;42.640;23.370;2023-03-14T06:40:10;8.60;;;7.77;;
5878;SDS011;2965;42.640;23.370;2023-03-14T06:42:37;15.07;;;9.43;;
5878;SDS011;2965;42.640;23.370;2023-03-14T06:45:03;11.93;;;8.60;;
5878;SDS011;2965;42.640;23.370;2023-03-14T06:47:28;12.13;;;8.80;;
5878;SDS011;2965;42.640;23.370;2023-03-14T06:49:54;13.23;;;7.97;;
5878;SDS011;2965;42.640;23.370;2023-03-14T06:52:19;24.33;;;9.63;;
5878;SDS011;2965;42.640;23.370;2023-03-14T06:54:44;19.13;;;9.67;;
5878;SDS011;2965;42.640;23.370;2023-03-14T06:57:10;16.60;;;9.93;;
5878;SDS011;2965;42.640;23.370;2023-03-14T06:59:35;18.93;;;8.80;;
5878;SDS011;2965;42.640;23.370;2023-03-14T07:02:00;7.83;;;7.03;;
5878;SDS011;2965;42.640;23.370;2023-03-14T07:04:26;9.07;;;7.10;;
5878;SDS011;2965;42.640;23.370;2023-03-14T07:06:51;11.73;;;8.13;;
5878;SDS011;2965;42.640;23.370;2023-03-14T07:09:16;10.90;;;8.77;;
5878;SDS011;2965;42.640;23.370;2023-03-14T07:11:42;10.83;;;8.53;;
5878;SDS011;2965;42.640;23.370;2023-03-14T07:14:09;12.97;;;7.90;;
5878;SDS011;2965;42.640;23.370;2023-03-14T07:16:40;11.70;;;7.00;;
5878;SDS011;2965;42.640;23.370;2023-03-14T07:19:05;18.03;;;8.77;;
5878;SDS011;2965;42.640;23.370;2023-03-14T07:21:31;19.17;;;7.80;;
5878;SDS011;2965;42.640;23.370;2023-03-14T07:23:57;12.57;;;7.60;;
5878;SDS011;2965;42.640;23.370;2023-03-14T07:26:23;11.37;;;10.10;;
5878;SDS011;2965;42.640;23.370;2023-03-14T07:28:48;21.60;;;10.20;;
5878;SDS011;2965;42.640;23.370;2023-03-14T07:31:13;17.27;;;10.67;;
5878;SDS011;2965;42.640;23.370;2023-03-14T07:33:39;16.10;;;10.23;;
5878;SDS011;2965;42.640;23.370;2023-03-14T07:36:04;13.60;;;10.10;;
5878;SDS011;2965;42.640;23.370;2023-03-14T07:38:30;20.33;;;10.80;;
5878;SDS011;2965;42.640;23.370;2023-03-14T07:40:59;15.40;;;9.43;;
5878;SDS011;2965;42.640;23.370;2023-03-14T07:43:28;21.63;;;11.17;;
5878;SDS011;2965;42.640;23.370;2023-03-14T07:45:54;19.13;;;10.27;;
5878;SDS011;2965;42.640;23.370;2023-03-14T07:48:19;12.00;;;9.63;;
5878;SDS011;2965;42.640;23.370;2023-03-14T07:50:49;16.33;;;9.60;;
5878;SDS011;2965;42.640;23.370;2023-03-14T07:55:45;15.70;;;9.80;;
5878;SDS011;2965;42.640;23.370;2023-03-14T07:58:11;22.57;;;10.53;;
5878;SDS011;2965;42.640;23.370;2023-03-14T08:00:37;15.47;;;10.30;;
5878;SDS011;2965;42.640;23.370;2023-03-14T08:03:03;15.40;;;10.90;;
5878;SDS011;2965;42.640;23.370;2023-03-14T08:05:28;21.73;;;11.57;;
5878;SDS011;2965;42.640;23.370;2023-03-14T08:07:54;12.10;;;9.63;;
5878;SDS011;2965;42.640;23.370;2023-03-14T08:10:19;26.07;;;11.37;;
5878;SDS011;2965;42.640;23.370;2023-03-14T08:12:51;21.63;;;12.10;;
5878;SDS011;2965;42.640;23.370;2023-03-14T08:15:20;15.47;;;11.30;;
5878;SDS011;2965;42.640;23.370;2023-03-14T08:17:45;22.53;;;11.67;;
5878;SDS011;2965;42.640;23.370;2023-03-14T08:20:15;22.53;;;11.13;;
5878;SDS011;2965;42.640;23.370;2023-03-14T08:22:44;21.07;;;12.20;;
5878;SDS011;2965;42.640;23.370;2023-03-14T08:25:09;19.27;;;11.03;;
5878;SDS011;2965;42.640;23.370;2023-03-14T08:27:35;18.47;;;11.47;;
5878;SDS011;2965;42.640;23.370;2023-03-14T08:30:03;14.63;;;10.83;;
5878;SDS011;2965;42.640;23.370;2023-03-14T08:32:33;24.70;;;12.83;;
5878;SDS011;2965;42.640;23.370;2023-03-14T08:34:58;28.50;;;13.70;;
5878;SDS011;2965;42.640;23.370;2023-03-14T08:37:23;25.17;;;14.60;;
5878;SDS011;2965;42.640;23.370;2023-03-14T08:39:50;31.90;;;14.73;;
5878;SDS011;2965;42.640;23.370;2023-03-14T08:42:15;24.67;;;14.00;;
5878;SDS011;2965;42.640;23.370;2023-03-14T08:44:41;26.50;;;14.93;;
5878;SDS011;2965;42.640;23.370;2023-03-14T08:47:06;40.53;;;14.67;;
5878;SDS011;2965;42.640;23.370;2023-03-14T08:49:32;25.17;;;15.53;;
5878;SDS011;2965;42.640;23.370;2023-03-14T08:51:57;23.43;;;14.20;;
5878;SDS011;2965;42.640;23.370;2023-03-14T08:54:23;31.93;;;14.70;;
5878;SDS011;2965;42.640;23.370;2023-03-14T08:56:49;26.50;;;14.17;;
5878;SDS011;2965;42.640;23.370;2023-03-14T08:59:14;26.87;;;14.57;;
5878;SDS011;2965;42.640;23.370;2023-03-14T09:01:40;26.67;;;14.23;;
5878;SDS011;2965;42.640;23.370;2023-03-14T09:04:05;25.03;;;14.03;;
5878;SDS011;2965;42.640;23.370;2023-03-14T09:06:31;26.70;;;13.33;;
5878;SDS011;2965;42.640;23.370;2023-03-14T09:08:57;23.80;;;13.17;;
5878;SDS011;2965;42.640;23.370;2023-03-14T09:11:22;26.97;;;14.40;;
5878;SDS011;2965;42.640;23.370;2023-03-14T09:13:48;20.67;;;14.10;;
5878;SDS011;2965;42.640;23.370;2023-03-14T09:16:13;24.70;;;14.83;;
5878;SDS011;2965;42.640;23.370;2023-03-14T09:18:39;22.07;;;14.20;;
5878;SDS011;2965;42.640;23.370;2023-03-14T09:21:04;32.80;;;15.90;;
5878;SDS011;2965;42.640;23.370;2023-03-14T09:23:30;19.33;;;13.30;;
5878;SDS011;2965;42.640;23.370;2023-03-14T09:25:56;21.80;;;12.47;;
5878;SDS011;2965;42.640;23.370;2023-03-14T09:28:22;19.03;;;12.60;;
5878;SDS011;2965;42.640;23.370;2023-03-14T09:30:48;23.20;;;13.20;;
5878;SDS011;2965;42.640;23.370;2023-03-14T09:33:14;35.10;;;12.37;;
5878;SDS011;2965;42.640;23.370;2023-03-14T09:35:40;26.50;;;12.77;;
5878;SDS011;2965;42.640;23.370;2023-03-14T09:38:06;25.50;;;14.20;;
5878;SDS011;2965;42.640;23.370;2023-03-14T09:40:32;18.33;;;11.43;;
5878;SDS011;2965;42.640;23.370;2023-03-14T09:43:00;15.50;;;11.27;;
5878;SDS011;2965;42.640;23.370;2023-03-14T09:45:27;19.47;;;12.53;;
5878;SDS011;2965;42.640;23.370;2023-03-14T09:47:56;21.70;;;11.50;;
5878;SDS011;2965;42.640;23.370;2023-03-14T09:50:23;21.53;;;11.70;;
5878;SDS011;2965;42.640;23.370;2023-03-14T09:53:02;14.60;;;10.47;;
5878;SDS011;2965;42.640;23.370;2023-03-14T09:55:31;13.60;;;11.00;;
5878;SDS011;2965;42.640;23.370;2023-03-14T09:57:59;13.23;;;9.30;;
5878;SDS011;2965;42.640;23.370;2023-03-14T10:00:29;13.50;;;9.50;;
5878;SDS011;2965;42.640;23.370;2023-03-14T10:05:58;24.90;;;10.50;;
5878;SDS011;2965;42.640;23.370;2023-03-14T10:08:24;10.90;;;8.37;;
5878;SDS011;2965;42.640;23.370;2023-03-14T10:10:50;14.67;;;8.80;;
5878;SDS011;2965;42.640;23.370;2023-03-14T10:13:23;18.50;;;9.40;;
5878;SDS011;2965;42.640;23.370;2023-03-14T10:18:28;13.27;;;9.20;;
5878;SDS011;2965;42.640;23.370;2023-03-14T10:21:16;14.70;;;9.80;;
5878;SDS011;2965;42.640;23.370;2023-03-14T10:23:45;12.03;;;9.40;;
5878;SDS011;2965;42.640;23.370;2023-03-14T10:26:15;12.83;;;9.23;;
5878;SDS011;2965;42.640;23.370;2023-03-14T10:28:51;9.87;;;8.70;;
5878;SDS011;2965;42.640;23.370;2023-03-14T10:31:17;14.10;;;9.10;;
5878;SDS011;2965;42.640;23.370;2023-03-14T10:33:43;21.03;;;9.57;;
5878;SDS011;2965;42.640;23.370;2023-03-14T10:36:24;10.73;;;8.60;;
5878;SDS011;2965;42.640;23.370;2023-03-14T10:38:57;16.03;;;9.80;;
5878;SDS011;2965;42.640;23.370;2023-03-14T10:41:48;14.97;;;10.37;;
5878;SDS011;2965;42.640;23.370;2023-03-14T10:44:20;10.87;;;7.80;;
5878;SDS011;2965;42.640;23.370;2023-03-14T10:49:47;7.00;;;6.00;;
5878;SDS011;2965;42.640;23.370;2023-03-14T10:52:14;7.90;;;6.33;;
5878;SDS011;2965;42.640;23.370;2023-03-14T10:54:49;6.57;;;6.00;;
5878;SDS011;2965;42.640;23.370;2023-03-14T10:57:21;18.87;;;7.27;;
5878;SDS011;2965;42.640;23.370;2023-03-14T10:59:46;8.00;;;5.20;;
5878;SDS011;2965;42.640;23.370;2023-03-14T11:05:04;6.50;;;5.57;;
5878;SDS011;2965;42.640;23.370;2023-03-14T11:07:45;5.83;;;5.43;;
5878;SDS011;2965;42.640;23.370;2023-03-14T11:10:18;5.17;;;4.77;;
5878;SDS011;2965;42.640;23.370;2023-03-14T11:15:36;5.73;;;5.33;;
5878;SDS011;2965;42.640;23.370;2023-03-14T11:18:29;8.17;;;5.37;;
5878;SDS011;2965;42.640;23.370;2023-03-14T11:21:29;5.30;;;4.90;;
5878;SDS011;2965;42.640;23.370;2023-03-14T11:26:42;5.20;;;4.70;;
5878;SDS011;2965;42.640;23.370;2023-03-14T11:29:25;4.33;;;4.03;;
5878;SDS011;2965;42.640;23.370;2023-03-14T11:31:59;5.20;;;4.90;;
5878;SDS011;2965;42.640;23.370;2023-03-14T11:34:32;5.40;;;4.47;;
5878;SDS011;2965;42.640;23.370;2023-03-14T11:37:06;5.80;;;4.30;;
5878;SDS011;2965;42.640;23.370;2023-03-14T11:39:40;4.70;;;4.30;;
5878;SDS011;2965;42.640;23.370;2023-03-14T11:42:11;4.83;;;4.50;;
5878;SDS011;2965;42.640;23.370;2023-03-14T11:44:39;6.27;;;4.73;;
5878;SDS011;2965;42.640;23.370;2023-03-14T11:52:46;4.70;;;4.50;;
5878;SDS011;2965;42.640;23.370;2023-03-14T11:55:22;4.10;;;3.57;;
5878;SDS011;2965;42.640;23.370;2023-03-14T11:57:51;4.73;;;4.43;;
5878;SDS011;2965;42.640;23.370;2023-03-14T12:00:22;3.90;;;3.70;;
5878;SDS011;2965;42.640;23.370;2023-03-14T12:03:09;8.80;;;4.03;;
5878;SDS011;2965;42.640;23.370;2023-03-14T12:08:46;12.23;;;4.50;;
5878;SDS011;2965;42.640;23.370;2023-03-14T12:11:22;5.00;;;4.70;;
5878;SDS011;2965;42.640;23.370;2023-03-14T12:16:59;5.27;;;4.37;;
5878;SDS011;2965;42.640;23.370;2023-03-14T12:19:43;7.43;;;3.53;;
5878;SDS011;2965;42.640;23.370;2023-03-14T12:25:02;7.90;;;3.93;;
5878;SDS011;2965;42.640;23.370;2023-03-14T12:28:16;4.17;;;4.00;;
5878;SDS011;2965;42.640;23.370;2023-03-14T12:35:42;3.77;;;3.33;;
5878;SDS011;2965;42.640;23.370;2023-03-14T12:41:19;3.33;;;3.23;;
5878;SDS011;2965;42.640;23.370;2023-03-14T12:43:45;4.60;;;3.30;;
5878;SDS011;2965;42.640;23.370;2023-03-14T12:48:46;3.60;;;3.40;;
5878;SDS011;2965;42.640;23.370;2023-03-14T12:51:14;5.00;;;3.47;;
5878;SDS011;2965;42.640;23.370;2023-03-14T12:57:06;2.80;;;2.70;;
5878;SDS011;2965;42.640;23.370;2023-03-14T13:02:28;4.10;;;2.93;;
5878;SDS011;2965;42.640;23.370;2023-03-14T13:05:05;3.67;;;3.20;;
5878;SDS011;2965;42.640;23.370;2023-03-14T13:12:37;3.80;;;3.60;;
5878;SDS011;2965;42.640;23.370;2023-03-14T13:15:17;3.10;;;2.50;;
5878;SDS011;2965;42.640;23.370;2023-03-14T13:17:49;2.70;;;2.60;;
5878;SDS011;2965;42.640;23.370;2023-03-14T13:20:29;3.30;;;3.20;;
5878;SDS011;2965;42.640;23.370;2023-03-14T13:22:57;4.33;;;3.60;;
5878;SDS011;2965;42.640;23.370;2023-03-14T13:25:23;3.00;;;2.80;;
5878;SDS011;2965;42.640;23.370;2023-03-14T13:27:49;3.57;;;3.37;;
5878;SDS011;2965;42.640;23.370;2023-03-14T13:30:20;2.90;;;2.80;;
5878;SDS011;2965;42.640;23.370;2023-03-14T13:32:47;3.80;;;2.67;;
5878;SDS011;2965;42.640;23.370;2023-03-14T13:35:14;3.10;;;2.90;;
5878;SDS011;2965;42.640;23.370;2023-03-14T13:37:55;2.90;;;2.70;;
5878;SDS011;2965;42.640;23.370;2023-03-14T13:40:34;5.23;;;2.70;;
5878;SDS011;2965;42.640;23.370;2023-03-14T13:43:01;2.80;;;2.70;;
5878;SDS011;2965;42.640;23.370;2023-03-14T13:48:16;2.77;;;2.67;;
5878;SDS011;2965;42.640;23.370;2023-03-14T13:50:50;3.00;;;2.83;;
5878;SDS011;2965;42.640;23.370;2023-03-14T13:53:17;2.83;;;2.73;;
5878;SDS011;2965;42.640;23.370;2023-03-14T13:55:43;2.77;;;2.67;;
5878;SDS011;2965;42.640;23.370;2023-03-14T13:58:18;2.70;;;2.60;;
5878;SDS011;2965;42.640;23.370;2023-03-14T14:00:58;2.93;;;2.83;;
5878;SDS011;2965;42.640;23.370;2023-03-14T14:03:27;2.80;;;2.60;;
5878;SDS011;2965;42.640;23.370;2023-03-14T14:05:58;3.80;;;3.50;;
5878;SDS011;2965;42.640;23.370;2023-03-14T14:08:24;2.53;;;2.43;;
5878;SDS011;2965;42.640;23.370;2023-03-14T14:10:50;3.27;;;2.70;;
5878;SDS011;2965;42.640;23.370;2023-03-14T14:13:23;7.13;;;3.13;;
5878;SDS011;2965;42.640;23.370;2023-03-14T14:15:52;2.80;;;2.70;;
5878;SDS011;2965;42.640;23.370;2023-03-14T14:18:20;4.07;;;3.77;;
5878;SDS011;2965;42.640;23.370;2023-03-14T14:20:50;2.97;;;2.87;;
5878;SDS011;2965;42.640;23.370;2023-03-14T14:23:18;2.70;;;2.60;;
5878;SDS011;2965;42.640;23.370;2023-03-14T14:25:50;4.17;;;2.97;;
5878;SDS011;2965;42.640;23.370;2023-03-14T14:30:59;3.53;;;3.33;;
5878;SDS011;2965;42.640;23.370;2023-03-14T14:33:37;2.70;;;2.50;;
5878;SDS011;2965;42.640;23.370;2023-03-14T14:36:05;8.90;;;2.80;;
5878;SDS011;2965;42.640;23.370;2023-03-14T14:38:49;3.70;;;2.80;;
5878;SDS011;2965;42.640;23.370;2023-03-14T14:41:16;4.70;;;2.63;;
5878;SDS011;2965;42.640;23.370;2023-03-14T14:43:41;3.10;;;3.00;;
5878;SDS011;2965;42.640;23.370;2023-03-14T14:46:07;3.70;;;3.17;;
5878;SDS011;2965;42.640;23.370;2023-03-14T14:51:03;3.00;;;2.90;;
5878;SDS011;2965;42.640;23.370;2023-03-14T14:53:38;2.67;;;2.47;;
5878;SDS011;2965;42.640;23.370;2023-03-14T14:56:07;5.77;;;2.30;;
5878;SDS011;2965;42.640;23.370;2023-03-14T14:58:59;2.40;;;2.30;;
5878;SDS011;2965;42.640;23.370;2023-03-14T15:01:30;2.30;;;2.20;;
5878;SDS011;2965;42.640;23.370;2023-03-14T15:03:57;2.67;;;2.47;;
5878;SDS011;2965;42.640;23.370;2023-03-14T15:06:24;2.70;;;2.60;;
5878;SDS011;2965;42.640;23.370;2023-03-14T15:08:53;3.30;;;3.10;;
5878;SDS011;2965;42.640;23.370;2023-03-14T15:11:22;2.70;;;2.50;;
5878;SDS011;2965;42.640;23.370;2023-03-14T15:13:49;2.27;;;2.17;;
5878;SDS011;2965;42.640;23.370;2023-03-14T15:16:15;3.90;;;2.20;;
5878;SDS011;2965;42.640;23.370;2023-03-14T15:18:44;2.70;;;1.67;;
5878;SDS011;2965;42.640;23.370;2023-03-14T15:21:13;4.70;;;2.40;;
5878;SDS011;2965;42.640;23.370;2023-03-14T15:23:39;6.07;;;2.57;;
5878;SDS011;2965;42.640;23.370;2023-03-14T15:26:15;3.23;;;2.90;;
5878;SDS011;2965;42.640;23.370;2023-03-14T15:28:42;3.60;;;3.40;;
5878;SDS011;2965;42.640;23.370;2023-03-14T15:31:08;3.60;;;3.27;;
5878;SDS011;2965;42.640;23.370;2023-03-14T15:33:35;3.00;;;2.53;;
5878;SDS011;2965;42.640;23.370;2023-03-14T15:36:00;3.30;;;3.10;;
5878;SDS011;2965;42.640;23.370;2023-03-14T15:38:26;6.77;;;3.20;;
5878;SDS011;2965;42.640;23.370;2023-03-14T15:40:51;5.10;;;3.90;;
5878;SDS011;2965;42.640;23.370;2023-03-14T15:43:17;3.80;;;2.73;;
5878;SDS011;2965;42.640;23.370;2023-03-14T15:45:44;7.57;;;3.43;;
5878;SDS011;2965;42.640;23.370;2023-03-14T15:48:17;2.97;;;2.77;;
5878;SDS011;2965;42.640;23.370;2023-03-14T15:50:44;3.40;;;3.20;;
5878;SDS011;2965;42.640;23.370;2023-03-14T15:53:10;3.90;;;3.60;;
5878;SDS011;2965;42.640;23.370;2023-03-14T15:55:36;2.93;;;2.73;;
5878;SDS011;2965;42.640;23.370;2023-03-14T15:58:02;4.70;;;3.50;;
5878;SDS011;2965;42.640;23.370;2023-03-14T16:00:27;11.30;;;3.87;;
5878;SDS011;2965;42.640;23.370;2023-03-14T16:02:53;4.00;;;3.60;;
5878;SDS011;2965;42.640;23.370;2023-03-14T16:05:19;3.00;;;2.80;;
5878;SDS011;2965;42.640;23.370;2023-03-14T16:07:44;3.63;;;3.43;;
5878;SDS011;2965;42.640;23.370;2023-03-14T16:10:11;4.70;;;3.80;;
5878;SDS011;2965;42.640;23.370;2023-03-14T16:12:38;4.07;;;3.73;;
5878;SDS011;2965;42.640;23.370;2023-03-14T16:15:04;6.23;;;4.13;;
5878;SDS011;2965;42.640;23.370;2023-03-14T16:17:29;3.73;;;3.50;;
5878;SDS011;2965;42.640;23.370;2023-03-14T16:19:55;11.00;;;3.67;;
5878;SDS011;2965;42.640;23.370;2023-03-14T16:22:21;3.80;;;3.60;;
5878;SDS011;2965;42.640;23.370;2023-03-14T16:24:46;3.03;;;2.93;;
5878;SDS011;2965;42.640;23.370;2023-03-14T16:27:12;4.30;;;3.80;;
5878;SDS011;2965;42.640;23.370;2023-03-14T16:29:37;5.33;;;3.30;;
5878;SDS011;2965;42.640;23.370;2023-03-14T16:32:02;3.37;;;3.17;;
5878;SDS011;2965;42.640;23.370;2023-03-14T16:34:28;3.13;;;2.93;;
5878;SDS011;2965;42.640;23.370;2023-03-14T16:36:53;8.13;;;3.70;;
5878;SDS011;2965;42.640;23.370;2023-03-14T16:39:19;3.77;;;3.47;;
5878;SDS011;2965;42.640;23.370;2023-03-14T16:41:45;3.27;;;2.87;;
5878;SDS011;2965;42.640;23.370;2023-03-14T16:44:11;3.93;;;2.77;;
5878;SDS011;2965;42.640;23.370;2023-03-14T16:46:37;3.90;;;3.70;;
5878;SDS011;2965;42.640;23.370;2023-03-14T16:49:03;3.20;;;3.00;;
5878;SDS011;2965;42.640;23.370;2023-03-14T16:51:29;3.30;;;3.10;;
5878;SDS011;2965;42.640;23.370;2023-03-14T16:53:54;3.20;;;2.90;;
5878;SDS011;2965;42.640;23.370;2023-03-14T16:56:20;10.40;;;3.60;;
5878;SDS011;2965;42.640;23.370;2023-03-14T16:58:46;3.27;;;3.07;;
5878;SDS011;2965;42.640;23.370;2023-03-14T17:01:13;3.47;;;3.17;;
5878;SDS011;2965;42.640;23.370;2023-03-14T17:03:45;3.50;;;3.27;;
5878;SDS011;2965;42.640;23.370;2023-03-14T17:06:14;3.23;;;3.00;;
5878;SDS011;2965;42.640;23.370;2023-03-14T17:08:41;3.87;;;3.57;;
5878;SDS011;2965;42.640;23.370;2023-03-14T17:11:07;5.63;;;3.87;;
5878;SDS011;2965;42.640;23.370;2023-03-14T17:13:33;3.90;;;3.60;;
5878;SDS011;2965;42.640;23.370;2023-03-14T17:15:59;4.03;;;3.73;;
5878;SDS011;2965;42.640;23.370;2023-03-14T17:18:25;4.20;;;3.83;;
5878;SDS011;2965;42.640;23.370;2023-03-14T17:20:52;3.50;;;3.30;;
5878;SDS011;2965;42.640;23.370;2023-03-14T17:23:19;10.33;;;3.33;;
5878;SDS011;2965;42.640;23.370;2023-03-14T17:25:45;8.67;;;3.83;;
5878;SDS011;2965;42.640;23.370;2023-03-14T17:28:11;6.90;;;4.57;;
5878;SDS011;2965;42.640;23.370;2023-03-14T17:30:37;5.53;;;4.10;;
5878;SDS011;2965;42.640;23.370;2023-03-14T17:33:02;5.30;;;4.80;;
5878;SDS011;2965;42.640;23.370;2023-03-14T17:35:28;4.93;;;4.33;;
5878;SDS011;2965;42.640;23.370;2023-03-14T17:37:54;4.17;;;3.77;;
5878;SDS011;2965;42.640;23.370;2023-03-14T17:40:19;4.50;;;3.50;;
5878;SDS011;2965;42.640;23.370;2023-03-14T17:42:44;4.77;;;3.70;;
5878;SDS011;2965;42.640;23.370;2023-03-14T17:45:10;4.30;;;4.00;;
5878;SDS011;2965;42.640;23.370;2023-03-14T17:47:36;6.23;;;4.40;;
5878;SDS011;2965;42.640;23.370;2023-03-14T17:50:01;4.20;;;3.80;;
5878;SDS011;2965;42.640;23.370;2023-03-14T17:52:30;4.40;;;4.10;;
5878;SDS011;2965;42.640;23.370;2023-03-14T17:54:56;10.47;;;4.60;;
5878;SDS011;2965;42.640;23.370;2023-03-14T17:57:22;5.17;;;4.00;;
5878;SDS011;2965;42.640;23.370;2023-03-14T17:59:47;5.40;;;4.00;;
5878;SDS011;2965;42.640;23.370;2023-03-14T18:02:13;4.07;;;3.70;;
5878;SDS011;2965;42.640;23.370;2023-03-14T18:04:38;3.53;;;2.93;;
5878;SDS011;2965;42.640;23.370;2023-03-14T18:07:03;5.03;;;3.20;;
5878;SDS011;2965;42.640;23.370;2023-03-14T18:09:29;3.97;;;3.77;;
5878;SDS011;2965;42.640;23.370;2023-03-14T18:11:54;7.03;;;3.60;;
5878;SDS011;2965;42.640;23.370;2023-03-14T18:14:20;3.23;;;3.03;;
5878;SDS011;2965;42.640;23.370;2023-03-14T18:16:45;3.80;;;3.60;;
5878;SDS011;2965;42.640;23.370;2023-03-14T18:19:14;3.50;;;3.20;;
5878;SDS011;2965;42.640;23.370;2023-03-14T18:21:40;3.50;;;3.37;;
5878;SDS011;2965;42.640;23.370;2023-03-14T18:24:05;3.40;;;3.20;;
5878;SDS011;2965;42.640;23.370;2023-03-14T18:26:31;3.87;;;3.67;;
5878;SDS011;2965;42.640;23.370;2023-03-14T18:28:57;3.57;;;3.37;;
5878;SDS011;2965;42.640;23.370;2023-03-14T18:31:22;4.03;;;3.40;;
5878;SDS011;2965;42.640;23.370;2023-03-14T18:33:49;3.53;;;3.33;;
5878;SDS011;2965;42.640;23.370;2023-03-14T18:36:16;4.57;;;3.27;;
5878;SDS011;2965;42.640;23.370;2023-03-14T18:38:43;3.07;;;2.97;;
5878;SDS011;2965;42.640;23.370;2023-03-14T18:41:11;7.33;;;3.27;;
5878;SDS011;2965;42.640;23.370;2023-03-14T18:43:38;6.43;;;2.70;;
5878;SDS011;2965;42.640;23.370;2023-03-14T18:46:03;3.50;;;3.30;;
5878;SDS011;2965;42.640;23.370;2023-03-14T18:48:29;4.90;;;3.00;;
5878;SDS011;2965;42.640;23.370;2023-03-14T18:50:56;3.10;;;2.90;;
5878;SDS011;2965;42.640;23.370;2023-03-14T18:53:22;4.03;;;3.43;;
5878;SDS011;2965;42.640;23.370;2023-03-14T18:55:55;11.70;;;3.30;;
5878;SDS011;2965;42.640;23.370;2023-03-14T18:58:21;8.43;;;3.83;;
5878;SDS011;2965;42.640;23.370;2023-03-14T19:00:53;3.30;;;2.90;;
5878;SDS011;2965;42.640;23.370;2023-03-14T21:47:29;18.87;;;7.87;;
5878;SDS011;2965;42.640;23.370;2023-03-14T21:49:55;11.30;;;7.97;;
5878;SDS011;2965;42.640;23.370;2023-03-14T21:52:20;8.90;;;7.70;;
5878;SDS011;2965;42.640;23.370;2023-03-14T21:54:46;11.20;;;7.40;;
5878;SDS011;2965;42.640;23.370;2023-03-14T21:57:12;10.87;;;7.97;;
5878;SDS011;2965;42.640;23.370;2023-03-14T21:59:39;10.70;;;7.13;;
